Time;durP1;ratioP1;P1;durP2;ratioP2;P2;SDS_P1;SDS_P2;PMS_P1;PMS_P2;Temp;Humidity;BMP_temperature;BMP_pressure;BME280_temperature;BME280_humidity;BME280_pressure;Samples;Min_cycle;Max_cycle;Signal;HPM_P1;HPM_P2
2023/06/28 00:00:56;;;;;;;4.27;2.77;;;26.20;44.60;;;;;;5064831;28;20472;-80
2023/06/28 00:03:24;;;;;;;2.77;2.53;;;26.20;44.70;;;;;;5056789;28;20893;-81
2023/06/28 00:05:52;;;;;;;2.77;2.47;;;26.10;44.50;;;;;;5050503;28;20476;-80
2023/06/28 00:08:20;;;;;;;5.27;3.03;;;26.20;44.70;;;;;;5052914;28;20422;-80
2023/06/28 00:10:49;;;;;;;4.17;3.17;;;26.10;44.70;;;;;;5048929;28;20577;-80
2023/06/28 00:13:18;;;;;;;2.73;2.53;;;26.10;44.80;;;;;;5053019;28;20441;-80
2023/06/28 00:15:48;;;;;;;3.07;2.87;;;26.10;44.80;;;;;;5049149;28;20569;-79
2023/06/28 00:18:16;;;;;;;4.40;2.90;;;26.10;44.80;;;;;;5055793;28;20486;-80
2023/06/28 00:20:44;;;;;;;3.27;2.53;;;26.10;44.70;;;;;;5063730;28;20466;-79
2023/06/28 00:23:13;;;;;;;3.77;2.90;;;26.00;44.70;;;;;;5055611;28;20447;-79
2023/06/28 00:25:42;;;;;;;2.60;2.40;;;26.00;44.40;;;;;;5054723;28;20554;-80
2023/06/28 00:28:10;;;;;;;3.07;2.40;;;26.00;44.60;;;;;;5054442;28;20417;-80
2023/06/28 00:30:39;;;;;;;2.90;2.53;;;25.90;44.60;;;;;;5055336;28;20569;-80
2023/06/28 00:33:09;;;;;;;3.83;3.40;;;25.90;44.60;;;;;;5054607;28;20455;-80
2023/06/28 00:35:37;;;;;;;6.53;3.73;;;25.90;44.50;;;;;;5054315;28;20464;-79
2023/06/28 00:38:05;;;;;;;4.03;3.30;;;25.90;44.50;;;;;;5049589;28;20520;-79
2023/06/28 00:40:33;;;;;;;3.43;3.13;;;25.90;44.50;;;;;;5061265;28;20496;-80
2023/06/28 00:43:01;;;;;;;4.40;3.90;;;25.90;44.50;;;;;;5056180;28;20525;-80
2023/06/28 00:45:29;;;;;;;5.43;4.40;;;25.80;44.50;;;;;;5054601;28;20462;-80
2023/06/28 00:47:57;;;;;;;3.83;3.43;;;25.80;44.60;;;;;;5051723;28;20493;-80
2023/06/28 00:50:27;;;;;;;5.77;4.43;;;25.80;44.50;;;;;;5060704;28;20451;-80
2023/06/28 00:52:57;;;;;;;5.47;4.20;;;25.80;44.40;;;;;;5054216;28;20425;-80
2023/06/28 00:55:25;;;;;;;4.80;4.17;;;25.80;44.40;;;;;;5054638;28;20430;-80
2023/06/28 00:57:53;;;;;;;6.73;4.90;;;25.70;44.30;;;;;;5060239;28;20479;-80
2023/06/28 01:00:21;;;;;;;5.70;4.03;;;25.80;44.50;;;;;;5053941;28;20504;-80
2023/06/28 01:02:49;;;;;;;5.00;4.50;;;25.70;44.40;;;;;;5054192;28;20486;-80
2023/06/28 01:05:19;;;;;;;6.30;4.27;;;25.70;44.60;;;;;;5053779;28;20470;-80
2023/06/28 01:07:50;;;;;;;7.63;4.67;;;25.70;44.50;;;;;;5047117;28;20518;-80
2023/06/28 01:10:18;;;;;;;5.40;4.90;;;25.70;44.40;;;;;;5050742;28;20556;-80
2023/06/28 01:12:47;;;;;;;5.20;4.67;;;25.70;44.50;;;;;;5053759;28;20452;-79
2023/06/28 01:15:15;;;;;;;6.50;5.30;;;25.70;44.50;;;;;;5060145;28;20562;-80
2023/06/28 01:17:43;;;;;;;6.10;4.70;;;25.60;44.30;;;;;;5045646;28;20471;-80
2023/06/28 01:20:11;;;;;;;5.00;4.50;;;25.60;44.40;;;;;;5054180;28;20422;-80
2023/06/28 01:22:41;;;;;;;4.87;4.47;;;25.60;44.50;;;;;;5051117;28;20455;-79
2023/06/28 01:25:11;;;;;;;5.83;4.67;;;25.60;44.40;;;;;;5053398;28;20520;-80
2023/06/28 01:27:44;;;;;;;6.40;5.20;;;25.60;44.30;;;;;;5060993;28;20449;-80
2023/06/28 01:30:14;;;;;;;6.17;5.20;;;25.50;44.40;;;;;;5056206;28;20472;-80
2023/06/28 01:32:43;;;;;;;4.50;4.20;;;25.50;44.30;;;;;;5045388;28;20443;-78
2023/06/28 01:35:14;;;;;;;4.90;4.43;;;25.50;44.40;;;;;;5060317;28;20470;-80
2023/06/28 01:37:43;;;;;;;5.53;5.00;;;25.50;44.30;;;;;;5044848;28;20454;-80
2023/06/28 01:40:13;;;;;;;5.70;5.20;;;25.50;44.20;;;;;;5051452;28;20450;-79
2023/06/28 01:42:41;;;;;;;5.57;5.00;;;25.40;44.30;;;;;;5058772;28;20429;-80
2023/06/28 01:45:10;;;;;;;6.10;4.83;;;25.40;44.30;;;;;;5052944;28;20545;-79
2023/06/28 01:47:38;;;;;;;4.67;4.33;;;25.40;44.20;;;;;;5057517;28;20455;-79
2023/06/28 01:50:07;;;;;;;7.63;5.50;;;25.40;44.30;;;;;;5053168;28;20512;-80
2023/06/28 01:52:35;;;;;;;7.07;4.93;;;25.40;44.40;;;;;;5052770;28;20421;-80
2023/06/28 01:55:05;;;;;;;5.70;5.07;;;25.40;44.30;;;;;;5059020;28;20539;-80
2023/06/28 01:57:34;;;;;;;6.63;5.10;;;25.40;44.20;;;;;;5058882;28;20505;-80
2023/06/28 02:00:08;;;;;;;6.50;4.63;;;25.40;44.40;;;;;;5057934;28;20438;-80
2023/06/28 02:02:36;;;;;;;5.37;4.87;;;25.40;44.30;;;;;;5056026;28;20474;-80
2023/06/28 02:05:05;;;;;;;5.77;5.17;;;25.30;44.20;;;;;;5057835;28;20483;-80
2023/06/28 02:07:32;;;;;;;4.70;4.30;;;25.30;44.30;;;;;;5052409;28;20451;-80
2023/06/28 02:10:01;;;;;;;6.27;4.90;;;25.30;44.10;;;;;;5056708;28;20503;-79
2023/06/28 02:12:30;;;;;;;4.87;4.47;;;25.30;44.30;;;;;;5054288;28;20448;-80
2023/06/28 02:15:03;;;;;;;5.00;4.50;;;25.30;44.40;;;;;;5055091;28;20462;-80
2023/06/28 02:17:31;;;;;;;4.80;4.40;;;25.20;44.00;;;;;;5047600;28;20518;-79
2023/06/28 02:20:00;;;;;;;5.30;4.80;;;25.20;44.20;;;;;;5054407;28;20504;-80
2023/06/28 02:22:28;;;;;;;4.93;4.40;;;25.20;44.10;;;;;;5052624;28;20436;-80
2023/06/28 02:24:56;;;;;;;4.77;4.37;;;25.20;44.40;;;;;;5058380;28;20465;-80
2023/06/28 02:27:24;;;;;;;5.97;4.73;;;25.10;44.40;;;;;;5052518;28;20520;-80
2023/06/28 02:29:53;;;;;;;4.80;4.30;;;25.20;44.40;;;;;;5060874;28;20457;-80
2023/06/28 02:32:23;;;;;;;4.60;4.27;;;25.10;44.30;;;;;;5053571;28;20989;-80
2023/06/28 02:34:51;;;;;;;5.00;4.43;;;25.20;44.40;;;;;;5050103;28;20449;-80
2023/06/28 02:37:19;;;;;;;4.63;4.17;;;25.10;44.10;;;;;;5052981;28;20483;-80
2023/06/28 02:39:47;;;;;;;4.30;4.00;;;25.10;44.30;;;;;;5054038;28;20481;-80
2023/06/28 02:42:15;;;;;;;6.60;4.10;;;25.10;44.10;;;;;;5053583;28;20534;-80
2023/06/28 02:44:44;;;;;;;5.03;4.20;;;25.10;44.10;;;;;;5054213;28;20527;-80
2023/06/28 02:47:12;;;;;;;5.00;4.50;;;25.00;44.40;;;;;;5057299;28;20533;-80
2023/06/28 02:49:45;;;;;;;4.53;4.13;;;25.10;44.30;;;;;;5052576;28;20454;-79
2023/06/28 02:52:13;;;;;;;4.30;4.00;;;25.00;44.10;;;;;;5056011;28;20464;-81
2023/06/28 02:54:41;;;;;;;4.47;4.13;;;25.00;44.20;;;;;;5053104;28;20475;-79
2023/06/28 02:57:10;;;;;;;4.60;4.20;;;25.00;44.00;;;;;;5053163;28;20444;-80
2023/06/28 02:59:38;;;;;;;7.10;4.10;;;25.00;44.30;;;;;;5057434;28;21073;-80
2023/06/28 03:02:06;;;;;;;6.20;4.30;;;25.00;44.20;;;;;;5053190;28;20858;-81
2023/06/28 03:04:39;;;;;;;4.90;3.60;;;25.00;44.00;;;;;;5058915;28;20501;-80
2023/06/28 03:07:14;;;;;;;4.60;4.20;;;25.00;44.20;;;;;;5053032;28;20451;-80
2023/06/28 03:09:43;;;;;;;3.90;3.60;;;25.00;44.30;;;;;;5059441;28;20446;-80
2023/06/28 03:12:11;;;;;;;4.10;3.80;;;25.00;44.20;;;;;;5051682;28;20533;-80
2023/06/28 03:14:40;;;;;;;3.90;3.43;;;25.00;44.10;;;;;;5053645;28;20561;-80
2023/06/28 03:17:08;;;;;;;4.50;4.10;;;24.90;44.10;;;;;;5062597;28;20442;-79
2023/06/28 03:19:36;;;;;;;4.27;3.87;;;24.90;44.10;;;;;;5058808;28;20512;-78
2023/06/28 03:22:04;;;;;;;4.23;3.93;;;25.00;44.20;;;;;;5060298;28;20450;-80
2023/06/28 03:24:34;;;;;;;4.93;3.87;;;25.00;44.00;;;;;;5056707;28;20472;-80
2023/06/28 03:27:03;;;;;;;3.30;3.10;;;24.90;44.00;;;;;;5051478;28;20483;-80
2023/06/28 03:29:31;;;;;;;4.33;3.90;;;24.90;44.00;;;;;;5054277;28;20405;-80
2023/06/28 03:31:59;;;;;;;4.77;4.33;;;24.90;44.00;;;;;;5056327;28;20531;-81
2023/06/28 03:34:27;;;;;;;3.73;3.47;;;24.90;44.00;;;;;;5056494;28;20448;-81
2023/06/28 03:36:56;;;;;;;4.10;3.80;;;24.90;43.90;;;;;;5056127;28;20517;-81
2023/06/28 03:39:31;;;;;;;5.67;3.60;;;24.90;43.80;;;;;;5058185;28;20441;-80
2023/06/28 03:42:01;;;;;;;3.93;3.63;;;24.90;43.90;;;;;;5054338;28;20443;-80
2023/06/28 03:44:29;;;;;;;4.77;3.90;;;24.90;43.80;;;;;;5059509;28;20506;-80
2023/06/28 03:46:57;;;;;;;3.53;3.33;;;24.90;43.90;;;;;;5055722;28;20458;-80
2023/06/28 03:49:25;;;;;;;4.93;4.53;;;24.90;43.90;;;;;;5056397;28;20477;-80
2023/06/28 03:51:53;;;;;;;4.93;4.33;;;24.90;43.80;;;;;;5056355;28;20443;-79
2023/06/28 03:54:21;;;;;;;4.50;4.10;;;24.90;43.70;;;;;;5063687;28;20465;-80
2023/06/28 03:56:49;;;;;;;4.40;4.00;;;24.90;43.90;;;;;;5046475;28;20466;-81
2023/06/28 03:59:19;;;;;;;3.60;3.37;;;24.90;43.80;;;;;;5054673;28;20421;-79
2023/06/28 04:01:47;;;;;;;3.90;3.60;;;24.90;43.60;;;;;;5057049;28;20427;-80
2023/06/28 04:04:16;;;;;;;4.53;4.10;;;24.90;43.70;;;;;;5057024;28;20540;-80
2023/06/28 04:06:45;;;;;;;4.70;4.30;;;24.90;43.90;;;;;;5057213;28;20417;-80
2023/06/28 04:09:13;;;;;;;4.27;3.87;;;24.90;43.80;;;;;;5056790;28;20512;-80
2023/06/28 04:11:41;;;;;;;3.60;3.40;;;24.90;43.50;;;;;;5063360;28;20500;-81
2023/06/28 04:14:09;;;;;;;4.53;4.10;;;24.90;43.60;;;;;;5056073;28;20454;-80
2023/06/28 04:16:38;;;;;;;4.13;3.83;;;24.90;43.70;;;;;;5055006;28;20428;-80
2023/06/28 04:19:07;;;;;;;4.93;4.43;;;24.90;43.40;;;;;;5055423;28;20452;-80
2023/06/28 04:21:35;;;;;;;3.90;3.50;;;24.90;43.60;;;;;;5055841;28;20537;-80
2023/06/28 04:24:04;;;;;;;4.67;3.77;;;24.90;43.50;;;;;;5063505;28;20474;-80
2023/06/28 04:26:32;;;;;;;4.30;4.00;;;24.90;43.40;;;;;;5054837;28;20482;-79
2023/06/28 04:29:00;;;;;;;6.03;3.90;;;24.90;43.30;;;;;;5055239;28;20466;-80
2023/06/28 04:31:28;;;;;;;4.17;3.87;;;24.90;43.40;;;;;;5062064;28;20481;-81
2023/06/28 04:33:59;;;;;;;4.27;3.90;;;25.00;43.40;;;;;;5052488;28;20485;-81
2023/06/28 04:36:27;;;;;;;5.03;4.53;;;25.00;43.30;;;;;;5057119;28;20488;-80
2023/06/28 04:38:56;;;;;;;3.70;3.40;;;25.00;43.30;;;;;;5055156;28;20447;-80
2023/06/28 04:41:25;;;;;;;4.00;3.57;;;25.00;43.30;;;;;;5064955;28;20537;-80
2023/06/28 04:43:55;;;;;;;4.23;3.83;;;25.00;43.30;;;;;;5046516;28;20417;-81
2023/06/28 04:46:26;;;;;;;4.90;3.73;;;25.00;43.20;;;;;;5054972;28;20425;-80
2023/06/28 04:48:54;;;;;;;3.77;3.50;;;25.00;43.30;;;;;;5054181;28;20504;-80
2023/06/28 04:51:24;;;;;;;5.43;3.60;;;25.00;43.20;;;;;;5052380;28;20524;-80
2023/06/28 04:53:52;;;;;;;4.00;3.70;;;25.00;43.20;;;;;;5053997;28;20453;-80
2023/06/28 04:56:20;;;;;;;5.23;3.70;;;25.10;43.20;;;;;;5057278;28;20467;-80
2023/06/28 04:58:48;;;;;;;4.00;3.40;;;25.10;43.10;;;;;;5053862;28;20482;-80
2023/06/28 05:01:16;;;;;;;3.53;3.23;;;25.10;43.10;;;;;;5049741;28;20513;-80
2023/06/28 05:03:47;;;;;;;4.20;3.80;;;25.10;43.20;;;;;;5054569;28;20421;-80
2023/06/28 05:06:16;;;;;;;4.23;3.77;;;25.10;43.10;;;;;;5059495;28;20421;-80
2023/06/28 05:08:46;;;;;;;3.53;3.23;;;25.10;43.10;;;;;;5055655;28;20439;-80
2023/06/28 05:11:14;;;;;;;4.40;3.60;;;25.10;43.10;;;;;;5054139;28;20506;-80
2023/06/28 05:13:42;;;;;;;4.87;3.60;;;25.20;43.10;;;;;;5054797;28;20573;-79
2023/06/28 05:16:11;;;;;;;3.67;3.37;;;25.20;43.10;;;;;;5055893;28;20445;-80
2023/06/28 05:18:39;;;;;;;3.87;3.57;;;25.20;43.10;;;;;;5056323;28;20447;-79
2023/06/28 05:21:07;;;;;;;3.67;3.37;;;25.20;43.00;;;;;;5058350;28;20448;-80
2023/06/28 05:23:35;;;;;;;3.83;3.33;;;25.20;43.00;;;;;;5047968;28;20452;-79
2023/06/28 05:26:04;;;;;;;4.17;3.17;;;25.20;42.90;;;;;;5051635;28;20948;-79
2023/06/28 05:28:32;;;;;;;3.40;3.10;;;25.20;42.90;;;;;;5048380;28;20409;-81
2023/06/28 05:31:01;;;;;;;3.37;3.10;;;25.20;42.90;;;;;;5055290;28;20956;-78
2023/06/28 05:33:29;;;;;;;3.30;3.10;;;25.30;43.00;;;;;;5052384;28;20475;-78
2023/06/28 05:35:58;;;;;;;3.57;3.27;;;25.30;42.90;;;;;;5045942;28;20491;-78
2023/06/28 05:38:26;;;;;;;3.90;3.33;;;25.30;42.90;;;;;;5054110;28;20425;-80
2023/06/28 05:40:54;;;;;;;5.33;3.87;;;25.40;42.90;;;;;;5046457;28;20421;-79
2023/06/28 05:43:24;;;;;;;4.20;3.80;;;25.40;42.80;;;;;;5050066;28;20596;-78
2023/06/28 05:45:52;;;;;;;3.60;3.30;;;25.40;42.90;;;;;;5059928;28;20478;-79
2023/06/28 05:48:20;;;;;;;3.67;3.40;;;25.40;42.80;;;;;;5056251;28;20466;-79
2023/06/28 05:50:49;;;;;;;4.27;3.20;;;25.50;42.80;;;;;;5054276;28;20446;-79
2023/06/28 05:53:17;;;;;;;3.87;3.40;;;25.50;42.70;;;;;;5049864;28;20477;-80
2023/06/28 05:55:46;;;;;;;3.70;3.43;;;25.50;42.80;;;;;;5051513;28;20476;-81
2023/06/28 05:58:14;;;;;;;3.93;3.60;;;25.50;42.70;;;;;;5052195;28;20424;-80
2023/06/28 06:00:43;;;;;;;3.67;3.37;;;25.50;42.90;;;;;;5055974;28;20426;-82
2023/06/28 06:03:12;;;;;;;4.27;3.90;;;25.60;42.80;;;;;;5059003;28;20483;-81
2023/06/28 06:05:40;;;;;;;3.63;3.37;;;25.50;42.80;;;;;;5049166;28;20537;-78
2023/06/28 06:08:08;;;;;;;3.37;3.17;;;25.50;42.70;;;;;;5040748;28;20436;-78
2023/06/28 06:10:36;;;;;;;3.70;3.40;;;25.60;42.70;;;;;;5051797;28;20439;-78
2023/06/28 06:13:04;;;;;;;4.07;3.67;;;25.60;42.70;;;;;;5049583;28;20468;-78
2023/06/28 06:15:32;;;;;;;3.47;3.20;;;25.60;42.80;;;;;;5050095;28;20466;-78
2023/06/28 06:18:02;;;;;;;5.23;3.80;;;25.60;42.90;;;;;;5047389;28;20508;-79
2023/06/28 06:20:31;;;;;;;3.87;3.53;;;25.60;42.90;;;;;;5054175;28;20497;-78
2023/06/28 06:22:59;;;;;;;3.23;3.03;;;25.60;42.80;;;;;;5050088;28;20444;-79
2023/06/28 06:25:28;;;;;;;4.93;3.77;;;25.70;43.00;;;;;;5060618;28;20470;-80
2023/06/28 06:27:56;;;;;;;4.60;3.90;;;25.70;43.00;;;;;;5053062;28;20417;-78
2023/06/28 06:30:24;;;;;;;3.67;3.30;;;25.70;42.90;;;;;;5048023;28;20434;-79
2023/06/28 06:32:52;;;;;;;3.30;3.00;;;25.80;42.90;;;;;;5052263;28;20518;-81
2023/06/28 06:35:22;;;;;;;3.20;2.90;;;25.80;42.90;;;;;;5045219;28;20467;-81
2023/06/28 06:37:50;;;;;;;4.07;3.13;;;25.80;42.90;;;;;;5053128;28;20443;-80
2023/06/28 06:40:18;;;;;;;2.97;2.77;;;25.90;42.90;;;;;;5048040;28;20425;-79
2023/06/28 06:42:46;;;;;;;8.87;3.40;;;25.90;42.80;;;;;;5052899;28;20472;-79
2023/06/28 06:45:17;;;;;;;4.40;3.13;;;26.00;42.80;;;;;;5044824;28;20461;-79
2023/06/28 06:47:45;;;;;;;3.80;3.13;;;26.00;42.80;;;;;;5036867;28;20449;-79
2023/06/28 06:50:14;;;;;;;4.70;3.00;;;26.10;42.70;;;;;;5052825;28;20409;-80
2023/06/28 06:52:43;;;;;;;3.10;2.80;;;26.20;42.80;;;;;;5049356;28;20410;-80
2023/06/28 06:55:11;;;;;;;4.07;3.67;;;26.20;42.60;;;;;;5053049;28;20450;-79
2023/06/28 06:57:40;;;;;;;3.83;3.47;;;26.20;42.70;;;;;;5050425;28;20441;-80
2023/06/28 07:00:09;;;;;;;3.93;3.30;;;26.20;42.60;;;;;;5060928;28;20430;-80
2023/06/28 07:02:37;;;;;;;3.77;3.20;;;26.30;42.70;;;;;;5053286;28;20454;-80
2023/06/28 07:05:06;;;;;;;3.60;3.30;;;26.30;42.60;;;;;;5065699;28;20436;-80
2023/06/28 07:07:34;;;;;;;3.67;3.37;;;26.30;42.60;;;;;;5059937;28;20839;-79
2023/06/28 07:10:05;;;;;;;3.50;3.20;;;26.40;42.60;;;;;;5048112;28;20417;-80
2023/06/28 07:12:34;;;;;;;5.97;3.37;;;26.40;42.70;;;;;;5062690;28;20917;-80
2023/06/28 07:15:02;;;;;;;4.23;3.70;;;26.40;42.60;;;;;;5042966;28;20501;-79
2023/06/28 07:17:31;;;;;;;3.87;3.50;;;26.50;42.70;;;;;;5056973;28;20447;-80
2023/06/28 07:19:59;;;;;;;4.13;3.73;;;26.50;42.60;;;;;;5052713;28;20466;-79
2023/06/28 07:22:28;;;;;;;4.20;3.50;;;26.60;42.70;;;;;;5054434;28;20421;-81
2023/06/28 07:25:02;;;;;;;5.57;3.80;;;26.60;42.70;;;;;;5052082;28;20508;-83
2023/06/28 07:27:32;;;;;;;3.43;3.13;;;26.60;42.60;;;;;;5057907;28;20420;-85
2023/06/28 07:30:00;;;;;;;4.43;3.70;;;26.70;42.60;;;;;;5061321;28;20424;-83
2023/06/28 07:32:28;;;;;;;4.37;3.97;;;26.80;42.60;;;;;;5058287;28;20449;-82
2023/06/28 07:34:56;;;;;;;6.33;3.70;;;26.80;42.60;;;;;;5055756;28;20455;-80
2023/06/28 07:37:24;;;;;;;5.07;3.97;;;26.80;42.60;;;;;;5058158;28;20474;-82
2023/06/28 07:39:52;;;;;;;4.93;3.67;;;26.80;42.70;;;;;;5056295;28;20470;-81
2023/06/28 07:42:20;;;;;;;3.50;3.20;;;26.90;42.70;;;;;;5056901;28;20433;-81
2023/06/28 07:44:51;;;;;;;4.27;3.43;;;26.90;42.70;;;;;;5058703;28;20459;-83
2023/06/28 07:47:19;;;;;;;3.67;3.40;;;26.90;42.80;;;;;;5058315;28;20781;-81
2023/06/28 07:49:47;;;;;;;3.27;2.90;;;27.00;42.80;;;;;;5054478;28;20444;-79
2023/06/28 07:52:19;;;;;;;8.10;2.80;;;27.00;43.60;;;;;;5060362;28;20428;-78
2023/06/28 07:54:50;;;;;;;7.07;2.90;;;26.40;46.80;;;;;;5061218;28;20527;-79
2023/06/28 07:57:18;;;;;;;4.43;2.70;;;25.80;49.00;;;;;;5060402;28;20451;-79
2023/06/28 07:59:47;;;;;;;9.20;3.00;;;24.80;50.90;;;;;;5061578;28;20447;-81
2023/06/28 08:02:16;;;;;;;8.37;2.70;;;24.50;51.90;;;;;;5060772;28;20421;-81
2023/06/28 08:04:44;;;;;;;5.07;2.50;;;24.50;53.10;;;;;;5064934;28;20425;-80
2023/06/28 08:07:13;;;;;;;11.10;2.80;;;24.40;52.40;;;;;;5059117;28;20572;-79
2023/06/28 08:09:41;;;;;;;13.47;2.90;;;23.80;53.30;;;;;;5066947;28;20477;-79
2023/06/28 08:12:10;;;;;;;6.47;2.07;;;23.40;52.60;;;;;;5059120;28;20454;-80
2023/06/28 08:14:39;;;;;;;10.33;2.67;;;23.40;54.20;;;;;;5061645;28;20441;-79
2023/06/28 08:17:10;;;;;;;8.80;3.20;;;23.10;53.10;;;;;;5052855;28;20446;-79
2023/06/28 08:19:46;;;;;;;7.23;2.50;;;23.10;54.90;;;;;;5061786;28;20449;-79
2023/06/28 08:22:14;;;;;;;9.20;2.47;;;23.00;54.40;;;;;;5061305;28;20447;-79
2023/06/28 08:24:43;;;;;;;4.30;2.57;;;22.60;55.70;;;;;;5051120;28;20895;-77
2023/06/28 08:27:11;;;;;;;6.57;2.43;;;22.80;54.90;;;;;;5044413;28;20454;-79
2023/06/28 08:29:39;;;;;;;5.53;2.67;;;23.00;56.00;;;;;;5050833;28;20447;-79
2023/06/28 08:32:09;;;;;;;5.60;2.90;;;23.50;54.80;;;;;;5052620;28;20446;-80
2023/06/28 08:34:37;;;;;;;7.70;2.90;;;23.80;53.50;;;;;;5053447;28;20474;-78
2023/06/28 08:37:08;;;;;;;4.77;2.60;;;23.60;53.40;;;;;;5056817;28;20955;-79
2023/06/28 08:39:37;;;;;;;7.20;3.50;;;23.30;53.70;;;;;;5050482;28;20450;-79
2023/06/28 08:42:06;;;;;;;4.93;2.40;;;23.40;55.00;;;;;;5047644;28;20453;-79
2023/06/28 08:44:34;;;;;;;6.77;2.80;;;23.20;53.00;;;;;;5053124;28;20466;-81
2023/06/28 08:47:03;;;;;;;14.90;2.70;;;23.30;54.30;;;;;;5050190;28;20466;-79
2023/06/28 08:49:32;;;;;;;4.60;2.27;;;23.50;53.60;;;;;;5059723;28;20447;-78
2023/06/28 08:52:00;;;;;;;5.47;2.70;;;23.70;52.80;;;;;;5058179;28;20421;-79
2023/06/28 08:54:30;;;;;;;7.63;2.77;;;23.80;53.80;;;;;;5046389;28;20507;-79
2023/06/28 08:56:58;;;;;;;4.80;2.30;;;24.10;52.80;;;;;;5056519;28;20432;-78
2023/06/28 08:59:39;;;;;;;6.93;2.50;;;24.30;52.30;;;;;;5055214;28;20507;-79
2023/06/28 09:02:08;;;;;;;6.50;2.17;;;24.00;52.70;;;;;;5054348;28;20486;-79
2023/06/28 09:04:36;;;;;;;11.53;2.67;;;23.60;52.60;;;;;;5054022;28;20438;-80
2023/06/28 09:07:05;;;;;;;5.27;2.33;;;23.20;54.10;;;;;;5058884;28;20471;-78
2023/06/28 09:09:35;;;;;;;5.83;2.67;;;23.40;54.00;;;;;;5060562;28;20442;-80
2023/06/28 09:12:04;;;;;;;4.00;2.60;;;23.80;53.20;;;;;;5059855;28;20494;-80
2023/06/28 09:14:32;;;;;;;8.00;2.60;;;24.10;52.80;;;;;;5053142;28;20441;-80
2023/06/28 09:17:00;;;;;;;4.40;2.40;;;23.50;54.00;;;;;;5056100;28;20436;-80
2023/06/28 09:19:28;;;;;;;6.93;2.80;;;24.00;54.10;;;;;;5058172;28;20417;-78
2023/06/28 09:22:02;;;;;;;6.27;2.13;;;23.60;53.80;;;;;;5050250;28;20417;-77
2023/06/28 09:24:34;;;;;;;5.13;2.30;;;23.30;54.10;;;;;;5057179;28;20439;-79
2023/06/28 09:27:03;;;;;;;4.57;2.20;;;23.90;53.40;;;;;;5057008;28;20453;-78
2023/06/28 09:29:31;;;;;;;4.43;2.30;;;24.50;51.00;;;;;;5055815;28;20442;-79
2023/06/28 09:32:00;;;;;;;3.30;2.10;;;24.80;50.50;;;;;;5055049;28;20483;-78
2023/06/28 09:34:29;;;;;;;3.57;2.03;;;24.70;50.50;;;;;;5055818;28;20520;-80
2023/06/28 09:36:57;;;;;;;3.63;2.00;;;24.40;52.10;;;;;;5050687;28;20470;-78
2023/06/28 09:39:26;;;;;;;4.10;1.90;;;24.10;52.50;;;;;;5049198;28;20452;-80
2023/06/28 09:41:55;;;;;;;2.90;1.93;;;24.10;52.80;;;;;;5055270;28;20478;-80
2023/06/28 09:44:28;;;;;;;2.70;2.00;;;24.70;52.70;;;;;;5060574;28;20449;-80
2023/06/28 09:47:00;;;;;;;2.00;1.50;;;25.60;51.00;;;;;;5055509;28;20436;-80
2023/06/28 09:49:29;;;;;;;8.80;1.90;;;26.20;49.40;;;;;;5055845;28;20447;-80
2023/06/28 09:51:58;;;;;;;2.67;2.00;;;26.70;48.40;;;;;;5055082;28;20524;-81
2023/06/28 09:54:31;;;;;;;2.20;1.73;;;27.10;47.60;;;;;;5051283;28;20973;-80
2023/06/28 09:57:01;;;;;;;3.47;1.60;;;27.50;46.90;;;;;;5054999;28;20492;-81
2023/06/28 09:59:32;;;;;;;3.57;1.63;;;27.70;46.30;;;;;;5055767;28;20447;-79
2023/06/28 10:02:05;;;;;;;5.17;1.83;;;27.90;45.80;;;;;;5055564;28;20457;-80
2023/06/28 10:04:35;;;;;;;1.73;1.50;;;28.10;45.40;;;;;;5055342;28;20533;-82
2023/06/28 10:07:04;;;;;;;2.80;1.85;;;28.30;45.20;;;;;;5053776;28;20428;-80
2023/06/28 10:09:35;;;;;;;1.90;1.80;;;28.10;45.30;;;;;;5054021;28;20198;-82
2023/06/28 10:12:07;;;;;;;1.77;1.50;;;28.20;45.60;;;;;;5050780;28;20432;-82
2023/06/28 10:14:37;;;;;;;2.60;1.63;;;28.40;44.80;;;;;;5036062;28;20463;-81
2023/06/28 10:17:09;;;;;;;2.00;1.70;;;28.60;44.50;;;;;;5054265;28;20454;-82
2023/06/28 10:19:38;;;;;;;4.07;1.50;;;28.70;44.20;;;;;;5053779;28;20450;-81
2023/06/28 10:22:06;;;;;;;2.60;1.80;;;28.80;44.10;;;;;;5053149;28;20495;-82
2023/06/28 10:24:35;;;;;;;2.40;1.90;;;28.90;43.80;;;;;;5052749;28;20465;-81
2023/06/28 10:27:05;;;;;;;1.80;1.70;;;29.00;43.80;;;;;;5044545;28;20501;-81
2023/06/28 10:29:34;;;;;;;1.80;1.70;;;29.00;43.60;;;;;;5053766;28;20421;-81
2023/06/28 10:32:02;;;;;;;1.90;1.80;;;29.00;43.50;;;;;;5052434;28;20476;-81
2023/06/28 10:34:37;;;;;;;2.30;1.80;;;29.00;43.40;;;;;;5057106;28;20466;-81
2023/06/28 10:37:06;;;;;;;2.00;1.87;;;29.00;43.50;;;;;;5054580;28;20548;-82
2023/06/28 10:39:36;;;;;;;3.20;1.93;;;29.10;43.50;;;;;;5054586;28;20459;-81
2023/06/28 10:42:07;;;;;;;3.53;2.13;;;29.10;43.50;;;;;;5062516;28;20449;-84
2023/06/28 10:44:53;;;;;;;2.13;1.93;;;29.10;43.40;;;;;;5050390;28;20485;-84
2023/06/28 10:47:21;;;;;;;6.00;1.80;;;29.10;43.40;;;;;;5048646;28;20494;-85
2023/06/28 10:50:08;;;;;;;2.10;1.87;;;29.10;43.40;;;;;;5052533;28;20438;-86
2023/06/28 10:52:43;;;;;;;2.37;2.13;;;29.10;43.60;;;;;;5049695;28;20422;-83
2023/06/28 10:55:11;;;;;;;2.40;2.23;;;29.20;43.50;;;;;;5055122;28;20492;-83
2023/06/28 10:57:41;;;;;;;2.20;2.10;;;29.20;43.50;;;;;;5055946;28;20843;-84
2023/06/28 11:00:39;;;;;;;2.40;2.30;;;29.20;43.50;;;;;;5063834;28;20472;-86
2023/06/28 11:03:07;;;;;;;2.33;2.23;;;29.20;43.50;;;;;;5053792;28;20491;-84
2023/06/28 11:05:39;;;;;;;3.07;2.30;;;29.20;43.40;;;;;;5057886;28;20436;-84
2023/06/28 11:08:09;;;;;;;2.97;2.27;;;29.30;43.40;;;;;;5057474;28;20439;-85
2023/06/28 11:10:37;;;;;;;3.43;2.50;;;29.30;43.40;;;;;;5054434;28;20810;-83
2023/06/28 11:13:10;;;;;;;2.83;2.10;;;29.30;43.40;;;;;;5055007;28;20481;-85
2023/06/28 11:15:42;;;;;;;2.27;2.10;;;29.30;43.40;;;;;;5058413;28;20470;-83
2023/06/28 11:18:12;;;;;;;3.13;2.50;;;29.30;43.40;;;;;;5053444;28;20446;-82
2023/06/28 11:20:51;;;;;;;4.47;2.57;;;29.40;43.40;;;;;;5056792;28;20531;-82
2023/06/28 11:23:29;;;;;;;2.33;2.20;;;29.40;43.50;;;;;;5046076;28;20439;-82
2023/06/28 11:25:57;;;;;;;2.40;2.20;;;29.40;43.40;;;;;;5053783;28;20530;-80
2023/06/28 11:28:29;;;;;;;3.00;2.47;;;29.40;43.40;;;;;;5057108;28;20434;-82
2023/06/28 11:31:12;;;;;;;2.53;2.37;;;29.40;43.40;;;;;;5054843;28;20428;-80
2023/06/28 11:33:40;;;;;;;2.67;2.47;;;29.40;43.30;;;;;;5048550;28;20422;-81
2023/06/28 11:36:09;;;;;;;3.30;2.87;;;29.50;43.40;;;;;;5050237;28;20470;-81
2023/06/28 11:38:37;;;;;;;2.60;2.40;;;29.50;43.30;;;;;;5056842;28;20446;-81
2023/06/28 11:41:06;;;;;;;3.23;2.33;;;29.50;43.30;;;;;;5057986;28;20546;-82
2023/06/28 11:43:35;;;;;;;2.53;2.40;;;29.40;43.30;;;;;;5067331;28;20498;-81
2023/06/28 11:46:04;;;;;;;2.80;2.60;;;29.50;43.30;;;;;;5065130;28;20530;-82
2023/06/28 11:48:32;;;;;;;3.03;2.77;;;29.50;43.30;;;;;;5059320;28;20449;-82
2023/06/28 11:51:01;;;;;;;3.00;2.77;;;29.50;43.30;;;;;;5058774;28;20429;-79
2023/06/28 11:53:30;;;;;;;2.53;2.43;;;29.50;43.30;;;;;;5059986;28;20451;-80
2023/06/28 11:55:59;;;;;;;2.83;2.57;;;29.50;43.30;;;;;;5064247;28;20469;-81
2023/06/28 11:58:29;;;;;;;2.60;2.50;;;29.50;43.30;;;;;;5057188;28;20474;-81
2023/06/28 12:00:58;;;;;;;2.47;2.33;;;29.50;43.30;;;;;;5056749;28;20828;-82
2023/06/28 12:03:31;;;;;;;3.10;2.87;;;29.60;43.30;;;;;;5057872;28;20441;-81
2023/06/28 12:06:00;;;;;;;3.07;2.70;;;29.50;43.90;;;;;;5056868;28;20556;-81
2023/06/28 12:08:33;;;;;;;5.23;2.90;;;29.50;43.40;;;;;;5052876;28;20481;-80
2023/06/28 12:11:02;;;;;;;3.10;2.90;;;29.50;43.40;;;;;;5056539;28;20439;-81
2023/06/28 12:13:29;;;;;;;3.17;2.90;;;29.50;43.50;;;;;;5055863;28;20438;-81
2023/06/28 12:16:00;;;;;;;2.87;2.60;;;29.50;43.40;;;;;;5055051;28;20457;-81
2023/06/28 12:18:54;;;;;;;2.70;2.50;;;29.50;43.40;;;;;;5056816;28;20442;-81
2023/06/28 12:21:23;;;;;;;3.90;2.90;;;29.50;43.50;;;;;;5049688;28;20461;-82
2023/06/28 12:23:51;;;;;;;2.93;2.50;;;29.50;43.40;;;;;;5056627;28;20449;-80
2023/06/28 12:26:19;;;;;;;4.87;2.70;;;29.50;43.50;;;;;;5063142;28;20461;-81
2023/06/28 12:28:49;;;;;;;7.53;2.87;;;29.50;43.40;;;;;;5058934;28;20629;-81
2023/06/28 12:31:21;;;;;;;3.10;2.73;;;29.60;43.40;;;;;;5067554;28;20441;-80
2023/06/28 12:33:56;;;;;;;3.17;2.70;;;29.60;43.40;;;;;;5060654;28;20943;-81
2023/06/28 12:36:25;;;;;;;3.53;2.60;;;29.60;43.30;;;;;;5064883;28;20474;-81
2023/06/28 12:38:53;;;;;;;3.57;2.60;;;29.60;43.30;;;;;;5056046;28;20481;-82
2023/06/28 12:41:21;;;;;;;3.97;2.80;;;29.60;43.30;;;;;;5043626;28;20457;-80
2023/06/28 12:43:57;;;;;;;3.30;2.57;;;29.60;43.30;;;;;;5055419;28;20424;-81
2023/06/28 12:46:27;;;;;;;3.17;2.97;;;29.60;43.30;;;;;;5055797;28;20483;-81
2023/06/28 12:51:48;;;;;;;5.60;2.63;;;29.70;43.30;;;;;;5049906;28;20449;-80
2023/06/28 12:54:16;;;;;;;2.87;2.53;;;29.70;43.20;;;;;;5062526;28;20903;-80
2023/06/28 12:56:44;;;;;;;2.70;2.50;;;29.70;43.20;;;;;;5056641;28;20470;-81
2023/06/28 12:59:12;;;;;;;2.63;2.53;;;29.70;43.10;;;;;;5055031;28;20453;-80